Time;durP1;ratioP1;P1;durP2;ratioP2;P2;SDS_P1;SDS_P2;PMS_P1;PMS_P2;Temp;Humidity;BMP_temperature;BMP_pressure;BME280_temperature;BME280_humidity;BME280_pressure;Samples;Min_cycle;Max_cycle;Signal;HPM_P1;HPM_P2
2023/05/23 05:51:05;;;;;;;11.52;7.22;;;;;;;;;;10589603;27;20407;-82
2023/05/23 05:56:07;;;;;;;11.98;7.55;;;;;;;;;;10587145;28;20035;-81
2023/05/23 06:01:08;;;;;;;8.80;5.85;;;;;;;;;;10593722;28;20030;-82
2023/05/23 06:06:09;;;;;;;;;;;;;;;;;;10594534;28;20062;-82
2023/05/23 06:11:11;;;;;;;13.52;6.88;;;;;;;;;;10602523;28;19975;-82
2023/05/23 06:16:12;;;;;;;10.10;5.47;;;;;;;;;;10602864;28;20038;-82
2023/05/23 06:21:13;;;;;;;9.23;6.45;;;;;;;;;;10603506;28;20144;-82
2023/05/23 06:26:14;;;;;;;9.95;5.60;;;;;;;;;;10593499;28;20027;-82
2023/05/23 06:31:15;;;;;;;6.60;4.93;;;;;;;;;;10610225;28;20048;-81
2023/05/23 06:36:16;;;;;;;7.68;5.68;;;;;;;;;;10592625;28;20024;-82
2023/05/23 06:41:17;;;;;;;11.43;5.85;;;;;;;;;;10588328;28;20053;-82
2023/05/23 06:46:18;;;;;;;6.10;4.80;;;;;;;;;;10587695;28;20110;-82
2023/05/23 06:51:19;;;;;;;11.32;6.25;;;;;;;;;;10587170;28;20039;-82
2023/05/23 06:56:21;;;;;;;8.55;5.53;;;;;;;;;;10584699;28;20077;-82
2023/05/23 07:01:22;;;;;;;6.00;3.85;;;;;;;;;;10564870;28;20073;-83
2023/05/23 07:06:23;;;;;;;5.45;4.00;;;;;;;;;;10562727;28;20032;-82
2023/05/23 07:11:25;;;;;;;7.32;4.60;;;;;;;;;;10562970;28;20469;-81
2023/05/23 07:16:26;;;;;;;7.45;4.88;;;;;;;;;;10556895;28;20449;-83
2023/05/23 07:21:27;;;;;;;7.18;5.32;;;;;;;;;;10557125;28;20047;-81
2023/05/23 07:26:28;;;;;;;10.18;6.50;;;;;;;;;;10555432;28;20028;-82
2023/05/23 07:31:29;;;;;;;11.82;8.80;;;;;;;;;;10580096;28;20012;-81
2023/05/23 07:36:32;;;;;;;13.43;9.48;;;;;;;;;;10574973;28;20081;-82
2023/05/23 07:41:33;;;;;;;11.30;8.07;;;;;;;;;;10563176;28;20027;-81
2023/05/23 07:46:35;;;;;;;10.60;6.38;;;;;;;;;;10578415;28;20119;-81
2023/05/23 07:51:36;;;;;;;11.90;8.55;;;;;;;;;;10570038;28;20096;-85
2023/05/23 07:56:51;;;;;;;11.80;7.60;;;;;;;;;;10559364;28;20028;-84
2023/05/23 08:01:53;;;;;;;17.52;12.25;;;;;;;;;;10558640;28;20028;-84
2023/05/23 08:06:54;;;;;;;14.00;11.68;;;;;;;;;;10555015;28;20054;-84
2023/05/23 08:11:55;;;;;;;18.48;9.68;;;;;;;;;;10554785;28;20185;-84
2023/05/23 08:16:56;;;;;;;17.92;12.00;;;;;;;;;;10555592;28;20059;-84
2023/05/23 08:22:00;;;;;;;11.65;7.50;;;;;;;;;;10556078;28;20068;-84
2023/05/23 08:27:01;;;;;;;9.30;6.00;;;;;;;;;;10558734;28;20119;-85
2023/05/23 08:32:02;;;;;;;10.43;6.20;;;;;;;;;;10557398;28;20107;-85
2023/05/23 08:37:38;;;;;;;9.35;6.05;;;;;;;;;;10564126;28;20119;-84
2023/05/23 08:42:39;;;;;;;9.07;5.10;;;;;;;;;;10579876;28;20091;-84
2023/05/23 08:47:44;;;;;;;8.82;5.05;;;;;;;;;;10582566;28;20035;-83
2023/05/23 08:52:56;;;;;;;7.07;4.55;;;;;;;;;;10583240;28;20011;-83
2023/05/23 08:58:00;;;;;;;9.07;5.60;;;;;;;;;;10581977;28;20028;-81
2023/05/23 09:03:02;;;;;;;7.35;4.80;;;;;;;;;;10584458;28;20072;-80
2023/05/23 09:08:03;;;;;;;8.18;5.50;;;;;;;;;;10568504;28;20519;-83
2023/05/23 09:13:04;;;;;;;9.55;4.72;;;;;;;;;;10563768;28;20028;-83
2023/05/23 09:18:05;;;;;;;10.52;5.03;;;;;;;;;;10569785;28;20091;-82
2023/05/23 09:23:06;;;;;;;8.43;4.25;;;;;;;;;;10555639;28;20031;-83
2023/05/23 09:28:08;;;;;;;11.25;5.30;;;;;;;;;;10552749;28;20070;-83
2023/05/23 09:33:11;;;;;;;7.88;5.28;;;;;;;;;;10554547;28;20047;-83
2023/05/23 09:38:12;;;;;;;8.10;4.90;;;;;;;;;;10554043;28;20032;-83
2023/05/23 09:43:17;;;;;;;7.82;4.35;;;;;;;;;;10554088;28;20432;-83
2023/05/23 09:48:18;;;;;;;10.00;5.50;;;;;;;;;;10555521;28;20039;-84
2023/05/23 09:53:21;;;;;;;6.95;4.28;;;;;;;;;;10561061;28;20032;-82
2023/05/23 10:04:07;;;;;;;8.77;4.10;;;;;;;;;;10531782;28;20028;-81
2023/05/23 10:09:43;;;;;;;8.82;5.03;;;;;;;;;;10363094;28;20033;-81
2023/05/23 10:14:48;;;;;;;11.85;5.50;;;;;;;;;;10496501;28;20028;-83
2023/05/23 10:19:56;;;;;;;9.05;6.00;;;;;;;;;;10584420;28;20052;-82
2023/05/23 10:24:59;;;;;;;8.43;3.92;;;;;;;;;;10585860;28;20028;-83
2023/05/23 10:30:01;;;;;;;7.93;3.83;;;;;;;;;;10577482;28;20028;-84
2023/05/23 10:35:22;;;;;;;9.82;4.80;;;;;;;;;;10564898;28;20042;-82
2023/05/23 10:41:04;;;;;;;8.05;4.13;;;;;;;;;;10579376;28;20166;-81
2023/05/23 10:46:15;;;;;;;7.73;3.50;;;;;;;;;;10487309;28;20039;-83
2023/05/23 10:51:16;;;;;;;8.00;4.15;;;;;;;;;;10567674;28;20036;-82
2023/05/23 10:56:23;;;;;;;8.45;4.00;;;;;;;;;;10566453;28;20020;-83
2023/05/23 11:01:33;;;;;;;13.02;6.70;;;;;;;;;;10569987;28;20039;-81
2023/05/23 11:06:44;;;;;;;5.87;3.60;;;;;;;;;;10576059;28;20047;-82
2023/05/23 11:12:07;;;;;;;8.75;4.10;;;;;;;;;;10570932;28;20078;-82
2023/05/23 11:17:17;;;;;;;10.60;3.97;;;;;;;;;;10572472;28;20047;-81
2023/05/23 11:22:18;;;;;;;6.55;3.60;;;;;;;;;;10569059;28;20074;-81
2023/05/23 11:27:27;;;;;;;9.98;3.88;;;;;;;;;;10566379;28;20028;-80
2023/05/23 11:32:29;;;;;;;5.35;2.95;;;;;;;;;;10562789;28;20038;-81
2023/05/23 11:37:31;;;;;;;6.25;2.97;;;;;;;;;;10564288;28;20052;-82
2023/05/23 11:42:32;;;;;;;6.35;3.28;;;;;;;;;;10564479;28;20039;-82
2023/05/23 11:47:40;;;;;;;6.50;3.42;;;;;;;;;;10566060;28;20091;-83
2023/05/23 11:52:41;;;;;;;9.18;3.05;;;;;;;;;;10563446;28;20446;-83
2023/05/23 11:57:43;;;;;;;6.30;2.85;;;;;;;;;;10562410;28;20028;-82
2023/05/23 12:02:46;;;;;;;5.22;3.00;;;;;;;;;;10438925;22;20038;-83
2023/05/23 12:07:48;;;;;;;8.07;3.50;;;;;;;;;;10405794;28;20121;-84
2023/05/23 12:12:51;;;;;;;8.80;3.10;;;;;;;;;;10439242;28;20030;-84
2023/05/23 12:17:53;;;;;;;7.15;3.08;;;;;;;;;;10428991;28;20527;-82
2023/05/23 12:22:56;;;;;;;7.60;3.05;;;;;;;;;;10430338;28;20175;-83
2023/05/23 12:27:57;;;;;;;6.55;2.80;;;;;;;;;;10428173;28;20112;-82
2023/05/23 12:32:58;;;;;;;5.93;2.83;;;;;;;;;;10444430;28;20044;-83
2023/05/23 12:37:59;;;;;;;9.20;3.17;;;;;;;;;;10441853;28;20128;-81
2023/05/23 12:43:00;;;;;;;5.50;2.67;;;;;;;;;;10429022;28;20025;-83
2023/05/23 12:48:07;;;;;;;8.57;3.60;;;;;;;;;;10427004;28;20082;-83
2023/05/23 12:53:08;;;;;;;7.47;3.15;;;;;;;;;;10424168;28;20032;-82
2023/05/23 12:58:09;;;;;;;9.07;3.42;;;;;;;;;;10424141;28;20032;-82
2023/05/23 13:03:10;;;;;;;8.45;3.30;;;;;;;;;;10426639;28;20067;-83
2023/05/23 13:08:11;;;;;;;7.88;3.38;;;;;;;;;;10424489;28;20029;-82
2023/05/23 13:13:12;;;;;;;8.90;3.30;;;;;;;;;;10424907;28;20083;-82
2023/05/23 13:18:14;;;;;;;8.38;3.00;;;;;;;;;;10426819;28;20034;-81
2023/05/23 13:23:15;;;;;;;11.40;3.22;;;;;;;;;;10434275;28;20048;-82
2023/05/23 13:28:16;;;;;;;11.48;3.33;;;;;;;;;;10429123;28;20029;-83
2023/05/23 13:33:17;;;;;;;6.13;2.85;;;;;;;;;;10432936;28;20052;-82
2023/05/23 13:38:18;;;;;;;6.75;3.20;;;;;;;;;;10436832;28;20037;-82
2023/05/23 13:43:19;;;;;;;6.97;3.17;;;;;;;;;;10434983;28;20045;-82
2023/05/23 13:48:20;;;;;;;7.25;2.83;;;;;;;;;;10435625;28;20037;-82
2023/05/23 13:53:22;;;;;;;7.35;2.67;;;;;;;;;;10431986;28;20420;-83
2023/05/23 13:58:23;;;;;;;8.38;3.40;;;;;;;;;;10427851;28;20101;-83
2023/05/23 14:03:24;;;;;;;10.30;4.60;;;;;;;;;;10425759;28;20045;-82
2023/05/23 14:08:25;;;;;;;6.30;2.85;;;;;;;;;;10428579;28;20045;-82
2023/05/23 14:13:26;;;;;;;10.27;4.20;;;;;;;;;;10444025;28;20368;-83
2023/05/23 14:18:27;;;;;;;9.05;3.50;;;;;;;;;;10442127;28;20036;-82
2023/05/23 14:23:28;;;;;;;10.48;4.50;;;;;;;;;;10467688;28;20029;-83
2023/05/23 14:28:30;;;;;;;6.82;2.90;;;;;;;;;;10450419;28;20045;-82
2023/05/23 14:33:31;;;;;;;5.82;2.88;;;;;;;;;;10433478;28;20032;-83
2023/05/23 14:38:32;;;;;;;7.03;2.83;;;;;;;;;;10435718;28;20034;-83
2023/05/23 14:43:33;;;;;;;8.35;2.65;;;;;;;;;;10435608;28;20021;-83
2023/05/23 14:48:34;;;;;;;5.32;2.85;;;;;;;;;;10432306;28;20029;-83
2023/05/23 14:53:36;;;;;;;6.60;2.72;;;;;;;;;;10435549;28;20040;-83
2023/05/23 14:58:40;;;;;;;7.30;3.42;;;;;;;;;;10432412;28;20120;-83
2023/05/23 15:03:41;;;;;;;5.63;3.13;;;;;;;;;;10432517;28;20444;-83
2023/05/23 15:08:46;;;;;;;6.57;2.80;;;;;;;;;;10434551;28;20040;-83
2023/05/23 15:13:47;;;;;;;6.80;2.50;;;;;;;;;;10434558;28;20024;-84
2023/05/23 15:18:48;;;;;;;7.40;2.80;;;;;;;;;;10429207;28;20022;-83
2023/05/23 15:23:50;;;;;;;8.10;2.78;;;;;;;;;;10431554;28;20021;-83
2023/05/23 15:28:51;;;;;;;8.38;2.85;;;;;;;;;;10436800;28;20029;-83
2023/05/23 15:33:52;;;;;;;6.70;2.90;;;;;;;;;;10439242;28;20036;-82
2023/05/23 15:38:53;;;;;;;8.82;2.90;;;;;;;;;;10431369;28;20032;-81
2023/05/23 15:43:54;;;;;;;6.72;2.97;;;;;;;;;;10437298;28;20521;-83
2023/05/23 15:48:58;;;;;;;7.43;3.22;;;;;;;;;;10432237;28;20029;-82
2023/05/23 15:53:59;;;;;;;10.55;4.93;;;;;;;;;;10440502;28;20535;-82
2023/05/23 15:59:00;;;;;;;8.27;3.25;;;;;;;;;;10445118;28;20103;-84
2023/05/23 16:04:01;;;;;;;7.88;2.60;;;;;;;;;;10448004;28;20024;-84
2023/05/23 16:09:02;;;;;;;9.30;2.30;;;;;;;;;;10459231;28;20037;-83
2023/05/23 16:14:03;;;;;;;7.53;2.70;;;;;;;;;;10450207;28;20479;-82
2023/05/23 16:19:04;;;;;;;6.70;2.67;;;;;;;;;;10439706;28;20057;-83
2023/05/23 16:24:06;;;;;;;5.50;2.33;;;;;;;;;;10438967;28;20028;-81
2023/05/23 16:29:07;;;;;;;6.10;2.38;;;;;;;;;;10433973;28;20064;-82
2023/05/23 16:34:08;;;;;;;8.80;2.28;;;;;;;;;;10435057;28;20389;-84
2023/05/23 16:39:09;;;;;;;8.18;2.53;;;;;;;;;;10429271;28;20105;-85
2023/05/23 16:44:10;;;;;;;7.88;2.55;;;;;;;;;;10428430;28;20464;-84
2023/05/23 16:49:11;;;;;;;5.10;2.05;;;;;;;;;;10427082;28;20133;-84
2023/05/23 16:54:12;;;;;;;8.10;3.25;;;;;;;;;;10428228;28;20625;-84
2023/05/23 16:59:13;;;;;;;13.05;6.93;;;;;;;;;;10427477;28;20120;-85
2023/05/23 17:04:14;;;;;;;11.10;3.50;;;;;;;;;;10429806;28;20021;-85
2023/05/23 17:09:16;;;;;;;7.13;3.20;;;;;;;;;;10431779;28;20068;-83
2023/05/23 17:14:17;;;;;;;5.65;2.42;;;;;;;;;;10425913;28;20029;-84
2023/05/23 17:19:19;;;;;;;5.72;2.30;;;;;;;;;;10425160;28;20056;-85
2023/05/23 17:24:20;;;;;;;5.88;2.80;;;;;;;;;;10423955;28;20021;-85
2023/05/23 17:29:21;;;;;;;6.45;2.30;;;;;;;;;;10425673;28;20030;-84
2023/05/23 17:34:22;;;;;;;5.78;2.28;;;;;;;;;;10426471;28;20039;-85
2023/05/23 17:39:23;;;;;;;8.25;2.58;;;;;;;;;;10425879;28;20032;-84
2023/05/23 17:44:24;;;;;;;6.95;2.40;;;;;;;;;;10436254;28;20026;-84
2023/05/23 17:49:25;;;;;;;6.95;2.30;;;;;;;;;;10426486;28;20052;-86
2023/05/23 17:54:26;;;;;;;6.78;2.35;;;;;;;;;;10424366;28;20111;-85
2023/05/23 17:59:27;;;;;;;7.03;2.70;;;;;;;;;;10451397;22;20124;-82
2023/05/23 18:04:29;;;;;;;5.30;2.15;;;;;;;;;;10470402;28;20029;-81
2023/05/23 18:09:30;;;;;;;5.72;2.22;;;;;;;;;;10470051;28;20028;-80
2023/05/23 18:14:31;;;;;;;5.85;2.08;;;;;;;;;;10468008;28;20021;-80
2023/05/23 18:19:33;;;;;;;5.80;2.22;;;;;;;;;;10471254;28;20029;-79
2023/05/23 18:24:34;;;;;;;9.90;2.40;;;;;;;;;;10476119;28;20067;-80
2023/05/23 18:29:35;;;;;;;4.22;2.00;;;;;;;;;;10473595;28;20053;-80
2023/05/23 18:34:36;;;;;;;5.38;2.30;;;;;;;;;;10474842;28;20455;-81
2023/05/23 18:39:37;;;;;;;6.38;2.47;;;;;;;;;;10471368;28;20478;-81
2023/05/23 18:44:39;;;;;;;5.28;1.92;;;;;;;;;;10473840;28;20108;-81
2023/05/23 18:49:40;;;;;;;6.55;2.22;;;;;;;;;;10477248;28;20059;-82
2023/05/23 18:54:41;;;;;;;7.55;2.30;;;;;;;;;;10471064;28;20029;-80
2023/05/23 18:59:43;;;;;;;5.07;2.45;;;;;;;;;;10477296;28;20394;-81
2023/05/23 19:04:44;;;;;;;7.20;2.50;;;;;;;;;;10477228;28;20124;-80
2023/05/23 19:09:45;;;;;;;8.65;2.60;;;;;;;;;;10475458;28;20064;-80
2023/05/23 19:14:46;;;;;;;8.20;2.50;;;;;;;;;;10474840;28;20059;-81
